createdAt,value
2018-02-11T00:01:40.661Z,22.35
2018-02-11T00:04:08.942Z,22.37
2018-02-11T00:06:37.238Z,22.36
2018-02-11T00:09:04.869Z,22.35
2018-02-11T00:11:33.160Z,22.35
2018-02-11T00:14:01.464Z,22.35
2018-02-11T00:16:29.782Z,22.36
2018-02-11T00:18:58.067Z,22.39
2018-02-11T00:21:26.351Z,22.41
2018-02-11T00:23:54.644Z,22.40
2018-02-11T00:26:22.951Z,22.39
2018-02-11T00:28:51.240Z,22.41
2018-02-11T00:31:19.544Z,22.41
2018-02-11T00:33:47.849Z,22.42
2018-02-11T00:36:16.148Z,22.43
2018-02-11T00:38:44.467Z,22.44
2018-02-11T00:41:12.775Z,22.43
2018-02-11T00:43:41.073Z,22.45
2018-02-11T00:46:09.354Z,22.39
2018-02-11T00:48:37.645Z,22.33
2018-02-11T00:51:05.947Z,22.32
2018-02-11T00:53:34.227Z,22.31
2018-02-11T00:56:02.529Z,22.30
2018-02-11T00:58:30.635Z,22.29
2018-02-11T01:00:58.947Z,22.26
2018-02-11T01:03:27.267Z,22.30
2018-02-11T01:05:55.637Z,22.28
2018-02-11T01:08:24.167Z,22.30
2018-02-11T01:10:52.518Z,22.30
2018-02-11T01:13:20.825Z,22.28
2018-02-11T01:15:49.125Z,22.28
2018-02-11T01:18:17.423Z,22.27
2018-02-11T01:20:45.737Z,22.28
2018-02-11T01:23:14.020Z,22.29
2018-02-11T01:25:42.312Z,22.30
2018-02-11T01:28:10.623Z,22.32
2018-02-11T01:30:38.920Z,22.34
2018-02-11T01:33:07.223Z,22.37
2018-02-11T01:35:35.529Z,22.39
2018-02-11T01:38:03.861Z,22.39
2018-02-11T01:40:32.152Z,22.41
2018-02-11T01:43:00.477Z,22.41
2018-02-11T01:45:28.762Z,22.41
2018-02-11T01:47:57.046Z,22.41
2018-02-11T01:50:25.326Z,22.43
2018-02-11T01:52:53.632Z,22.43
2018-02-11T01:55:21.925Z,22.43
2018-02-11T01:57:50.216Z,22.42
2018-02-11T02:00:18.504Z,22.43
2018-02-11T02:02:46.809Z,22.42
2018-02-11T02:05:15.104Z,22.41
2018-02-11T02:07:43.425Z,22.41
2018-02-11T02:10:11.728Z,22.38
2018-02-11T02:12:40.025Z,22.37
2018-02-11T02:15:08.318Z,22.36
2018-02-11T02:17:36.610Z,22.36
2018-02-11T02:20:04.925Z,22.36
2018-02-11T02:22:33.224Z,22.35
2018-02-11T02:25:01.517Z,22.35
2018-02-11T02:27:29.811Z,22.37
2018-02-11T02:29:58.098Z,22.38
2018-02-11T02:32:26.389Z,22.39
2018-02-11T02:34:54.704Z,22.41
2018-02-11T02:37:23.045Z,22.42
2018-02-11T02:39:51.346Z,22.41
2018-02-11T02:42:19.661Z,22.43
2018-02-11T02:44:47.966Z,22.44
2018-02-11T02:47:16.256Z,22.45
2018-02-11T02:49:44.714Z,22.45
2018-02-11T02:52:13.000Z,22.44
2018-02-11T02:54:41.287Z,22.45
2018-02-11T02:57:09.568Z,22.47
2018-02-11T02:59:37.882Z,22.46
2018-02-11T03:02:06.175Z,22.48
2018-02-11T03:04:34.471Z,22.46
2018-02-11T03:07:02.773Z,22.46
2018-02-11T03:09:31.058Z,22.47
2018-02-11T03:11:59.342Z,22.46
2018-02-11T03:14:27.678Z,22.46
2018-02-11T03:16:55.986Z,22.46
2018-02-11T03:19:24.273Z,22.46
2018-02-11T03:21:52.578Z,22.44
2018-02-11T03:24:20.879Z,22.44
2018-02-11T03:26:49.257Z,22.44
2018-02-11T03:29:17.564Z,22.42
2018-02-11T03:31:45.847Z,22.42
2018-02-11T03:34:14.126Z,22.39
2018-02-11T03:36:42.424Z,22.37
2018-02-11T03:39:10.715Z,22.40
2018-02-11T03:41:39.008Z,22.37
2018-02-11T03:44:07.312Z,22.37
2018-02-11T03:46:35.604Z,22.37
2018-02-11T03:49:03.890Z,22.36
2018-02-11T03:51:32.191Z,22.34
2018-02-11T03:54:00.467Z,22.33
2018-02-11T03:56:28.762Z,22.34
2018-02-11T03:58:57.078Z,22.32
2018-02-11T04:01:25.369Z,22.31
2018-02-11T04:03:53.659Z,22.32
2018-02-11T04:06:22.038Z,22.29
2018-02-11T04:08:50.339Z,22.28
2018-02-11T04:11:18.630Z,22.29
2018-02-11T04:13:46.957Z,22.29
2018-02-11T04:16:15.261Z,22.26
2018-02-11T04:18:43.590Z,22.26
2018-02-11T04:21:11.912Z,22.24
2018-02-11T04:23:40.211Z,22.24
2018-02-11T04:26:08.525Z,22.24
2018-02-11T04:28:36.828Z,22.25
2018-02-11T04:31:05.141Z,22.24
2018-02-11T04:33:33.418Z,22.22
2018-02-11T04:36:01.718Z,22.22
2018-02-11T04:38:30.015Z,22.21
2018-02-11T04:40:58.310Z,22.21
2018-02-11T04:43:26.625Z,22.22
2018-02-11T04:45:54.925Z,22.20
2018-02-11T04:48:23.227Z,22.21
2018-02-11T04:50:51.515Z,22.20
2018-02-11T04:53:19.835Z,22.21
2018-02-11T04:55:48.114Z,22.22
2018-02-11T04:58:16.416Z,22.22
2018-02-11T05:00:44.750Z,22.21
2018-02-11T05:03:13.041Z,22.19
2018-02-11T05:05:41.330Z,22.19
2018-02-11T05:08:09.622Z,22.19
2018-02-11T05:10:37.949Z,22.16
2018-02-11T05:13:06.255Z,22.16
2018-02-11T05:15:34.563Z,22.15
2018-02-11T05:18:02.844Z,22.17
2018-02-11T05:20:31.148Z,22.14
2018-02-11T05:22:59.456Z,22.14
2018-02-11T05:25:27.772Z,22.13
2018-02-11T05:27:56.074Z,22.13
2018-02-11T05:30:24.350Z,22.14
2018-02-11T05:32:52.746Z,22.13
2018-02-11T05:35:21.058Z,22.14
2018-02-11T05:37:49.388Z,22.15
2018-02-11T05:40:17.681Z,22.17
2018-02-11T05:42:45.981Z,22.16
2018-02-11T05:45:14.335Z,22.17
2018-02-11T05:47:42.655Z,22.18
2018-02-11T05:50:10.958Z,22.14
2018-02-11T05:52:39.408Z,22.15
2018-02-11T05:55:07.691Z,22.16
2018-02-11T05:57:35.993Z,22.15
2018-02-11T06:00:04.287Z,22.16
2018-02-11T06:02:32.577Z,22.16
2018-02-11T06:05:00.858Z,22.16
2018-02-11T06:07:29.183Z,22.16
2018-02-11T06:09:57.476Z,22.11
2018-02-11T06:12:25.802Z,21.27
2018-02-11T06:14:54.113Z,20.67
2018-02-11T06:17:22.416Z,21.26
2018-02-11T06:19:50.727Z,21.54
2018-02-11T06:22:19.024Z,21.67
2018-02-11T06:24:47.379Z,21.76
2018-02-11T06:27:15.677Z,21.80
2018-02-11T06:29:43.975Z,21.84
2018-02-11T06:32:12.268Z,21.86
2018-02-11T06:34:40.556Z,21.89
2018-02-11T06:37:08.890Z,21.90
2018-02-11T06:39:37.184Z,21.90
2018-02-11T06:42:05.260Z,21.87
2018-02-11T06:44:33.728Z,21.88
2018-02-11T06:47:02.033Z,21.89
2018-02-11T06:49:30.315Z,21.87
2018-02-11T06:51:58.620Z,21.92
2018-02-11T06:54:26.900Z,21.92
2018-02-11T06:56:55.203Z,21.90
2018-02-11T06:59:23.495Z,22.00
2018-02-11T07:01:51.802Z,22.02
2018-02-11T07:04:20.087Z,22.02
2018-02-11T07:06:48.425Z,22.01
2018-02-11T07:09:16.711Z,21.98
2018-02-11T07:11:44.998Z,21.97
2018-02-11T07:14:13.292Z,21.95
2018-02-11T07:16:41.574Z,21.96
2018-02-11T07:19:09.890Z,21.95
2018-02-11T07:21:38.185Z,21.93
2018-02-11T07:24:06.511Z,21.91
2018-02-11T07:26:34.796Z,21.90
2018-02-11T07:29:03.152Z,21.89
2018-02-11T07:31:31.460Z,21.87
2018-02-11T07:33:59.750Z,21.85
2018-02-11T07:36:28.041Z,21.85
2018-02-11T07:38:56.348Z,21.82
2018-02-11T07:41:24.631Z,21.78
2018-02-11T07:43:52.947Z,21.82
2018-02-11T07:46:21.232Z,21.81
2018-02-11T07:48:49.511Z,21.78
2018-02-11T07:51:17.803Z,21.77
2018-02-11T07:53:46.112Z,21.78
2018-02-11T07:56:14.423Z,21.76
2018-02-11T07:58:42.704Z,21.01
2018-02-11T08:01:11.000Z,20.22
2018-02-11T08:03:39.294Z,19.62
2018-02-11T08:06:07.586Z,19.41
2018-02-11T08:08:35.893Z,19.12
2018-02-11T08:11:04.202Z,18.92
2018-02-11T08:13:32.502Z,18.81
2018-02-11T08:16:00.580Z,18.74
2018-02-11T08:18:28.743Z,18.58
2018-02-11T08:20:57.027Z,18.38
2018-02-11T08:23:25.382Z,18.30
2018-02-11T08:25:53.699Z,18.38
2018-02-11T08:28:22.018Z,18.27
2018-02-11T08:30:51.169Z,18.35
2018-02-11T08:33:19.505Z,19.15
2018-02-11T08:35:47.801Z,19.72
2018-02-11T08:38:16.125Z,20.03
2018-02-11T08:40:44.445Z,20.25
2018-02-11T08:43:12.752Z,20.42
2018-02-11T08:45:41.053Z,20.55
2018-02-11T08:48:09.368Z,20.66
2018-02-11T08:50:37.663Z,20.76
2018-02-11T08:53:05.964Z,20.84
2018-02-11T08:55:34.293Z,20.91
2018-02-11T08:58:02.574Z,20.97
2018-02-11T09:00:30.861Z,21.03
2018-02-11T09:02:59.186Z,21.11
2018-02-11T09:05:27.484Z,21.17
2018-02-11T09:07:55.792Z,21.23
2018-02-11T09:10:24.081Z,21.28
2018-02-11T09:12:52.402Z,21.32
2018-02-11T09:15:21.027Z,21.35
2018-02-11T09:17:49.392Z,21.40
2018-02-11T09:20:17.445Z,21.41
2018-02-11T09:22:45.749Z,21.45
2018-02-11T09:25:14.053Z,21.47
2018-02-11T09:27:42.185Z,21.49
2018-02-11T09:30:10.551Z,21.52
2018-02-11T09:32:38.880Z,21.54
2018-02-11T09:35:06.990Z,21.57
2018-02-11T09:37:35.446Z,21.56
2018-02-11T09:40:03.761Z,21.61
2018-02-11T09:42:32.052Z,21.58
2018-02-11T09:45:00.367Z,21.60
2018-02-11T09:47:28.668Z,21.64
2018-02-11T09:49:56.969Z,21.64
2018-02-11T09:52:25.281Z,21.67
2018-02-11T09:54:53.590Z,21.69
2018-02-11T09:57:21.895Z,21.72
2018-02-11T09:59:50.213Z,21.76
2018-02-11T10:02:18.490Z,21.77
2018-02-11T10:04:47.112Z,21.79
2018-02-11T10:07:15.304Z,21.78
2018-02-11T10:09:43.620Z,21.81
2018-02-11T10:12:11.923Z,21.82
2018-02-11T10:14:40.229Z,21.80
2018-02-11T10:17:08.565Z,21.80
2018-02-11T10:19:36.861Z,21.83
2018-02-11T10:22:05.159Z,21.85
2018-02-11T10:24:33.467Z,21.87
2018-02-11T10:27:01.749Z,21.86
2018-02-11T10:29:30.062Z,21.82
2018-02-11T10:31:58.391Z,21.83
2018-02-11T10:34:26.667Z,21.86
2018-02-11T10:36:54.978Z,21.85
2018-02-11T10:39:23.259Z,21.88
2018-02-11T10:41:51.438Z,21.89
2018-02-11T10:44:19.737Z,21.90
2018-02-11T10:46:48.045Z,21.96
2018-02-11T10:49:16.593Z,22.02
2018-02-11T10:51:44.935Z,22.02
2018-02-11T10:54:13.619Z,22.03
2018-02-11T10:56:42.532Z,22.04
2018-02-11T10:59:10.820Z,22.05
2018-02-11T11:01:39.899Z,22.07
2018-02-11T11:04:08.213Z,22.06
2018-02-11T11:06:36.546Z,22.07
2018-02-11T11:09:04.429Z,22.06
2018-02-11T11:11:32.737Z,22.07
2018-02-11T11:14:01.057Z,22.08
2018-02-11T11:16:29.355Z,22.10
2018-02-11T11:18:57.700Z,22.12
2018-02-11T11:21:25.998Z,22.09
2018-02-11T11:23:54.320Z,22.11
2018-02-11T11:26:22.517Z,22.11
2018-02-11T11:28:50.662Z,22.10
2018-02-11T11:31:18.995Z,22.11
2018-02-11T11:33:47.348Z,22.10
2018-02-11T11:36:15.689Z,22.09
2018-02-11T11:38:44.024Z,22.11
2018-02-11T11:41:12.470Z,22.09
2018-02-11T11:43:40.672Z,22.12
2018-02-11T11:46:09.010Z,22.14
2018-02-11T11:48:37.520Z,22.15
2018-02-11T11:51:05.909Z,22.17
2018-02-11T11:53:34.203Z,22.20
2018-02-11T11:56:02.510Z,22.19
2018-02-11T11:58:30.923Z,22.19
2018-02-11T12:00:59.264Z,22.17
2018-02-11T12:03:27.626Z,22.15
2018-02-11T12:05:56.120Z,22.19
2018-02-11T12:08:25.305Z,22.19
2018-02-11T12:10:53.637Z,22.18
2018-02-11T12:13:21.999Z,22.20
2018-02-11T12:15:50.327Z,22.20
2018-02-11T12:18:18.659Z,22.17
2018-02-11T12:20:47.025Z,22.13
2018-02-11T12:23:15.336Z,22.13
2018-02-11T12:25:43.682Z,22.15
2018-02-11T12:28:13.210Z,22.15
2018-02-11T12:30:41.742Z,22.15
2018-02-11T12:33:10.165Z,22.13
2018-02-11T12:35:38.530Z,22.14
2018-02-11T12:38:07.001Z,22.17
2018-02-11T12:40:35.406Z,22.18
2018-02-11T12:43:03.738Z,22.17
2018-02-11T12:45:32.021Z,22.20
2018-02-11T12:48:00.325Z,22.22
2018-02-11T12:50:29.481Z,22.19
2018-02-11T12:52:57.814Z,22.06
2018-02-11T12:55:26.178Z,22.09
2018-02-11T12:57:54.488Z,22.11
2018-02-11T13:00:22.803Z,22.11
2018-02-11T13:02:51.100Z,22.10
2018-02-11T13:05:19.427Z,22.12
2018-02-11T13:07:47.752Z,22.13
2018-02-11T13:10:16.152Z,22.11
2018-02-11T13:12:44.490Z,22.10
2018-02-11T13:15:12.804Z,22.10
2018-02-11T13:17:41.143Z,22.10
2018-02-11T13:20:09.536Z,22.10
2018-02-11T13:22:37.935Z,22.13
2018-02-11T13:25:07.063Z,22.13
2018-02-11T13:27:35.360Z,22.15
2018-02-11T13:30:03.671Z,22.16
2018-02-11T13:32:32.036Z,22.16
2018-02-11T13:35:00.340Z,22.19
2018-02-11T13:37:28.670Z,22.20
2018-02-11T13:39:57.009Z,22.20
2018-02-11T13:42:25.377Z,22.19
2018-02-11T13:44:53.732Z,22.18
2018-02-11T13:47:22.031Z,22.20
2018-02-11T13:49:50.384Z,22.19
2018-02-11T13:52:19.642Z,22.20
2018-02-11T13:54:48.896Z,22.20
2018-02-11T13:57:17.223Z,22.15
2018-02-11T13:59:45.564Z,22.17
2018-02-11T14:02:14.006Z,22.13
2018-02-11T14:04:42.311Z,22.11
2018-02-11T14:07:10.671Z,22.13
2018-02-11T14:09:38.966Z,22.13
2018-02-11T14:12:07.262Z,22.10
2018-02-11T14:14:35.722Z,22.11
2018-02-11T14:17:04.021Z,22.12
2018-02-11T14:19:32.331Z,22.13
2018-02-11T14:22:00.614Z,22.14
2018-02-11T14:24:28.895Z,22.15
2018-02-11T14:26:57.260Z,22.18
2018-02-11T14:29:25.613Z,22.19
2018-02-11T14:31:53.931Z,22.20
2018-02-11T14:34:22.919Z,22.20
2018-02-11T14:36:51.231Z,22.22
2018-02-11T14:39:19.543Z,22.22
2018-02-11T14:41:47.827Z,22.22
2018-02-11T14:44:16.131Z,22.21
2018-02-11T14:46:44.519Z,22.20
2018-02-11T14:49:12.812Z,22.21
2018-02-11T14:51:41.106Z,22.21
2018-02-11T14:54:09.404Z,22.21
2018-02-11T14:56:37.708Z,22.17
2018-02-11T14:59:05.991Z,22.15
2018-02-11T15:01:34.324Z,22.12
2018-02-11T15:04:02.645Z,22.11
2018-02-11T15:06:30.966Z,22.13
2018-02-11T15:08:59.336Z,22.12
2018-02-11T15:11:27.712Z,22.13
2018-02-11T15:13:56.981Z,22.15
2018-02-11T15:16:25.266Z,22.12
2018-02-11T15:18:53.616Z,22.14
2018-02-11T15:21:21.902Z,22.13
2018-02-11T15:23:50.011Z,22.15
2018-02-11T15:26:18.349Z,22.14
2018-02-11T15:28:46.646Z,22.13
2018-02-11T15:31:15.091Z,22.13
2018-02-11T15:33:43.483Z,22.12
2018-02-11T15:36:12.068Z,22.14
2018-02-11T15:38:40.414Z,22.15
2018-02-11T15:41:09.499Z,22.15
2018-02-11T15:43:45.128Z,22.12
2018-02-11T15:46:13.436Z,22.09
2018-02-11T15:48:41.853Z,22.10
2018-02-11T15:51:10.148Z,22.10
2018-02-11T15:53:38.442Z,22.09
2018-02-11T15:56:06.757Z,22.11
2018-02-11T15:58:36.390Z,22.11
2018-02-11T16:01:04.758Z,22.12
2018-02-11T16:03:33.279Z,22.11
2018-02-11T16:06:01.602Z,22.12
2018-02-11T16:08:30.481Z,22.12
2018-02-11T16:10:59.295Z,22.16
2018-02-11T16:13:28.611Z,22.18
2018-02-11T16:15:57.354Z,22.19
2018-02-11T16:18:26.216Z,22.21
2018-02-11T16:20:55.865Z,22.21
2018-02-11T16:23:24.182Z,22.23
2018-02-11T16:25:52.508Z,22.25
2018-02-11T16:28:20.805Z,22.29
2018-02-11T16:30:49.219Z,22.27
2018-02-11T16:33:17.579Z,22.25
2018-02-11T16:35:45.882Z,22.28
2018-02-11T16:38:14.232Z,22.27
2018-02-11T16:40:43.394Z,22.28
2018-02-11T16:43:11.755Z,22.29
2018-02-11T16:45:40.064Z,22.28
2018-02-11T16:48:08.322Z,22.30
2018-02-11T16:50:37.235Z,22.30
2018-02-11T16:53:05.731Z,22.30
2018-02-11T16:55:34.197Z,22.29
2018-02-11T16:58:02.493Z,22.26
2018-02-11T17:00:31.864Z,22.26
2018-02-11T17:03:00.926Z,22.28
2018-02-11T17:05:29.270Z,22.28
2018-02-11T17:07:57.711Z,22.28
2018-02-11T17:10:25.999Z,22.29
2018-02-11T17:12:54.332Z,22.30
2018-02-11T17:15:22.640Z,22.36
2018-02-11T17:17:50.981Z,22.32
2018-02-11T17:20:19.282Z,22.31
2018-02-11T17:22:48.278Z,22.31
2018-02-11T17:25:17.550Z,22.35
2018-02-11T17:27:45.916Z,22.34
2018-02-11T17:30:14.220Z,22.36
2018-02-11T17:32:42.534Z,22.34
2018-02-11T17:35:11.411Z,22.34
2018-02-11T17:37:40.127Z,22.33
2018-02-11T17:40:08.436Z,22.32
2018-02-11T17:42:36.749Z,22.30
2018-02-11T17:45:05.057Z,22.27
2018-02-11T17:47:33.355Z,22.22
2018-02-11T17:50:01.710Z,22.24
2018-02-11T17:52:30.671Z,22.22
2018-02-11T17:55:01.318Z,22.21
2018-02-11T17:57:30.711Z,22.19
2018-02-11T17:59:59.043Z,22.19
2018-02-11T18:02:27.287Z,22.15
2018-02-11T18:04:58.493Z,22.16
2018-02-11T18:07:26.812Z,22.13
2018-02-11T18:09:54.968Z,22.12
2018-02-11T18:12:23.300Z,22.12
2018-02-11T18:14:52.063Z,22.12
2018-02-11T18:17:20.413Z,22.13
2018-02-11T18:19:49.553Z,22.13
2018-02-11T18:22:17.920Z,22.13
2018-02-11T18:24:46.855Z,22.09
2018-02-11T18:27:16.047Z,22.13
2018-02-11T18:29:45.337Z,22.10
2018-02-11T18:32:13.866Z,22.10
2018-02-11T18:34:42.758Z,22.10
2018-02-11T18:37:11.334Z,22.10
2018-02-11T18:39:39.636Z,22.12
2018-02-11T18:42:07.934Z,22.13
2018-02-11T18:44:37.215Z,22.20
2018-02-11T18:47:05.531Z,22.20
2018-02-11T18:49:33.987Z,22.20
2018-02-11T18:52:03.960Z,22.21
2018-02-11T18:54:33.397Z,22.22
2018-02-11T18:57:01.716Z,22.23
2018-02-11T18:59:29.917Z,22.24
2018-02-11T19:01:59.436Z,22.26
2018-02-11T19:04:27.755Z,22.26
2018-02-11T19:06:56.205Z,22.26
2018-02-11T19:09:24.709Z,22.25
2018-02-11T19:11:53.012Z,22.25
2018-02-11T19:14:21.365Z,22.26
2018-02-11T19:16:49.671Z,22.25
2018-02-11T19:19:18.048Z,22.25
2018-02-11T19:21:47.529Z,22.24
2018-02-11T19:24:15.815Z,22.24
2018-02-11T19:26:45.732Z,22.22
2018-02-11T19:29:16.129Z,22.23
2018-02-11T19:31:44.505Z,22.21
2018-02-11T19:34:13.500Z,22.21
2018-02-11T19:36:42.127Z,22.19
2018-02-11T19:39:11.056Z,22.17
2018-02-11T19:41:40.566Z,22.18
2018-02-11T19:44:08.984Z,22.17
2018-02-11T19:46:38.093Z,22.18
2018-02-11T19:49:06.731Z,22.17
2018-02-11T19:51:34.896Z,22.17
2018-02-11T19:54:03.174Z,22.17
2018-02-11T19:56:32.201Z,22.16
2018-02-11T19:59:00.517Z,22.15
2018-02-11T20:01:29.009Z,22.16
2018-02-11T20:03:57.313Z,22.15
2018-02-11T20:06:25.624Z,22.17
2018-02-11T20:08:53.917Z,22.17
2018-02-11T20:11:22.208Z,22.19
2018-02-11T20:13:50.499Z,22.19
2018-02-11T20:16:19.921Z,22.18
2018-02-11T20:18:48.201Z,22.18
2018-02-11T20:21:17.528Z,22.18
2018-02-11T20:23:45.826Z,22.19
2018-02-11T20:26:16.102Z,22.19
2018-02-11T20:28:44.422Z,22.18
2018-02-11T20:31:13.246Z,22.18
2018-02-11T20:33:41.557Z,22.17
2018-02-11T20:36:09.887Z,22.16
2018-02-11T20:38:39.898Z,22.15
2018-02-11T20:41:08.215Z,22.13
2018-02-11T20:43:37.276Z,22.12
2018-02-11T20:46:05.571Z,22.14
2018-02-11T20:48:34.436Z,22.13
2018-02-11T20:51:02.776Z,22.12
2018-02-11T20:53:31.073Z,22.10
2018-02-11T20:56:01.026Z,22.10
2018-02-11T20:58:29.326Z,22.11
2018-02-11T21:00:57.620Z,22.09
2018-02-11T21:03:26.851Z,22.09
2018-02-11T21:05:56.108Z,22.09
2018-02-11T21:08:24.418Z,22.08
2018-02-11T21:10:53.607Z,22.08
2018-02-11T21:13:21.890Z,22.08
2018-02-11T21:15:50.144Z,22.08
2018-02-11T21:18:18.522Z,22.08
2018-02-11T21:20:46.827Z,22.10
2018-02-11T21:23:14.935Z,22.10
2018-02-11T21:25:43.453Z,22.11
2018-02-11T21:28:11.760Z,22.12
2018-02-11T21:30:40.753Z,22.10
2018-02-11T21:33:09.094Z,22.10
2018-02-11T21:35:37.380Z,22.12
2018-02-11T21:38:05.686Z,22.11
2018-02-11T21:40:34.010Z,22.12
2018-02-11T21:43:02.329Z,22.12
2018-02-11T21:45:30.812Z,22.13
2018-02-11T21:47:59.114Z,22.14
2018-02-11T21:50:27.489Z,22.13
2018-02-11T21:52:56.192Z,22.14
2018-02-11T21:55:24.887Z,22.17
2018-02-11T21:57:53.218Z,22.15
2018-02-11T22:00:21.783Z,22.15
2018-02-11T22:02:50.229Z,22.15
2018-02-11T22:05:18.521Z,22.14
2018-02-11T22:07:46.865Z,22.15
2018-02-11T22:10:15.166Z,22.15
2018-02-11T22:12:43.466Z,22.17
2018-02-11T22:15:11.772Z,22.17
2018-02-11T22:17:41.022Z,22.18
2018-02-11T22:20:09.301Z,22.15
2018-02-11T22:22:37.594Z,22.17
2018-02-11T22:25:05.899Z,22.18
2018-02-11T22:27:34.218Z,22.19
2018-02-11T22:30:02.514Z,22.19
2018-02-11T22:32:31.740Z,22.19
2018-02-11T22:35:00.044Z,22.20
2018-02-11T22:37:28.326Z,22.21
2018-02-11T22:39:56.631Z,22.23
2018-02-11T22:42:24.910Z,22.23
2018-02-11T22:44:53.223Z,22.24
2018-02-11T22:47:21.522Z,22.25
2018-02-11T22:49:49.839Z,22.27
2018-02-11T22:52:18.130Z,22.28
2018-02-11T22:54:46.425Z,22.29
2018-02-11T22:57:14.724Z,22.31
2018-02-11T22:59:42.996Z,22.31
2018-02-11T23:02:11.299Z,22.32
2018-02-11T23:04:39.586Z,22.32
2018-02-11T23:07:07.869Z,22.33
2018-02-11T23:09:36.172Z,22.34
2018-02-11T23:12:04.447Z,22.33
2018-02-11T23:14:32.750Z,22.33
2018-02-11T23:17:01.056Z,22.32
2018-02-11T23:19:40.710Z,22.33
2018-02-11T23:22:09.004Z,22.31
2018-02-11T23:24:37.316Z,22.31
2018-02-11T23:27:05.607Z,22.27
2018-02-11T23:29:33.886Z,22.28
2018-02-11T23:32:02.170Z,22.28
2018-02-11T23:34:30.441Z,22.26
2018-02-11T23:36:58.734Z,22.28
2018-02-11T23:39:27.028Z,22.31
2018-02-11T23:41:55.306Z,22.32
2018-02-11T23:44:23.641Z,22.32
2018-02-11T23:46:51.950Z,22.32
2018-02-11T23:49:20.249Z,22.34
2018-02-11T23:51:48.561Z,22.30
2018-02-11T23:54:17.047Z,22.30
2018-02-11T23:56:45.348Z,22.32
2018-02-11T23:59:13.638Z,22.32
